Time;durP1;ratioP1;P1;durP2;ratioP2;P2;SDS_P1;SDS_P2;PMS_P1;PMS_P2;Temp;Humidity;BMP_temperature;BMP_pressure;BME280_temperature;BME280_humidity;BME280_pressure;Samples;Min_cycle;Max_cycle;Signal;HPM_P1;HPM_P2
2021/08/21 00:00:38;;;;;;;0.00;0.00;;;17.20;99.90;;;;;;5076705;28;20054;-88
2021/08/21 00:03:25;;;;;;;0.00;0.00;;;17.10;99.90;;;;;;5077530;28;20042;-87
2021/08/21 00:06:12;;;;;;;0.00;0.00;;;17.00;99.90;;;;;;5077166;28;20044;-87
2021/08/21 00:08:59;;;;;;;0.00;0.00;;;17.10;99.90;;;;;;5082021;28;20056;-87
2021/08/21 00:11:47;;;;;;;0.00;0.00;;;17.00;99.90;;;;;;5085257;28;20123;-86
2021/08/21 00:14:34;;;;;;;0.00;0.00;;;16.90;99.90;;;;;;5085085;28;20131;-88
2021/08/21 00:17:23;;;;;;;0.00;0.00;;;16.90;99.90;;;;;;5077226;28;20564;-87
2021/08/21 00:20:11;;;;;;;0.00;0.00;;;16.90;99.90;;;;;;5082286;28;20416;-87
2021/08/21 00:22:58;;;;;;;0.00;0.00;;;16.90;99.90;;;;;;5076398;28;20044;-86
2021/08/21 00:25:45;;;;;;;0.00;0.00;;;16.80;99.90;;;;;;5088662;28;20088;-85
2021/08/21 00:28:32;;;;;;;0.00;0.00;;;16.80;99.90;;;;;;5070811;28;20125;-87
2021/08/21 00:31:20;;;;;;;0.00;0.00;;;16.70;99.90;;;;;;5073683;28;20162;-88
2021/08/21 00:34:09;;;;;;;0.00;0.00;;;16.70;99.90;;;;;;5089701;28;20048;-89
2021/08/21 00:36:56;;;;;;;0.00;0.00;;;16.70;99.90;;;;;;5081970;28;20404;-87
2021/08/21 00:39:43;;;;;;;0.00;0.00;;;16.60;99.90;;;;;;5085084;28;20168;-87
2021/08/21 00:42:30;;;;;;;0.00;0.00;;;16.50;99.90;;;;;;5086544;28;20054;-88
2021/08/21 00:45:18;;;;;;;0.00;0.00;;;16.50;99.90;;;;;;5080355;28;20050;-87
2021/08/21 00:48:06;;;;;;;0.00;0.00;;;16.50;99.90;;;;;;5085652;28;20178;-89
2021/08/21 00:50:58;;;;;;;0.00;0.00;;;16.40;99.90;;;;;;5087574;28;20052;-89
2021/08/21 00:53:45;;;;;;;0.00;0.00;;;16.40;99.90;;;;;;5076844;28;20051;-89
2021/08/21 00:56:32;;;;;;;0.00;0.00;;;16.30;99.90;;;;;;5070771;28;20060;-87
2021/08/21 00:59:20;;;;;;;0.00;0.00;;;16.70;99.90;;;;;;5097745;28;20089;-90
2021/08/21 01:02:08;;;;;;;0.00;0.00;;;16.30;99.90;;;;;;5089931;28;20069;-93
2021/08/21 01:04:57;;;;;;;0.00;0.00;;;16.20;99.90;;;;;;5098071;28;20036;-93
2021/08/21 01:07:46;;;;;;;0.00;0.00;;;16.20;99.90;;;;;;5078375;28;20070;-88
2021/08/21 01:10:33;;;;;;;0.00;0.00;;;16.20;99.90;;;;;;5076664;28;20045;-87
2021/08/21 01:13:20;;;;;;;0.00;0.00;;;16.20;99.90;;;;;;5076377;28;20134;-88
2021/08/21 01:16:07;;;;;;;0.00;0.00;;;16.20;99.90;;;;;;5075554;28;20044;-88
2021/08/21 01:18:56;;;;;;;0.00;0.00;;;16.20;99.90;;;;;;5075832;28;20613;-88
2021/08/21 01:21:43;;;;;;;0.00;0.00;;;16.10;99.90;;;;;;5094092;28;20122;-88
2021/08/21 01:24:33;;;;;;;0.00;0.00;;;16.10;99.90;;;;;;5080185;28;20127;-87
2021/08/21 01:27:23;;;;;;;0.00;0.00;;;16.10;99.90;;;;;;5088387;28;20711;-88
2021/08/21 01:30:11;;;;;;;0.00;0.00;;;16.10;99.90;;;;;;5079794;28;20046;-87
2021/08/21 01:32:58;;;;;;;0.00;0.00;;;16.10;99.90;;;;;;5068880;28;20055;-87
2021/08/21 01:35:45;;;;;;;0.00;0.00;;;16.00;99.90;;;;;;5071359;28;20083;-88
2021/08/21 01:38:32;;;;;;;0.00;0.00;;;15.90;99.90;;;;;;5075244;28;20504;-88
2021/08/21 01:41:19;;;;;;;0.00;0.00;;;15.90;99.90;;;;;;5097707;28;20036;-87
2021/08/21 01:44:08;;;;;;;0.00;0.00;;;15.90;99.90;;;;;;5068188;28;20048;-88
2021/08/21 01:46:55;;;;;;;0.00;0.00;;;15.80;99.90;;;;;;5081733;28;20506;-88
2021/08/21 01:49:49;;;;;;;0.00;0.00;;;15.90;99.90;;;;;;5076912;28;20087;-87
2021/08/21 01:52:36;;;;;;;0.00;0.00;;;15.90;99.90;;;;;;5081584;28;20423;-87
2021/08/21 01:55:23;;;;;;;0.00;0.00;;;15.90;99.90;;;;;;5075711;28;20560;-88
2021/08/21 01:58:18;;;;;;;0.00;0.00;;;15.90;99.90;;;;;;5075189;28;20040;-87
2021/08/21 02:01:06;;;;;;;0.00;0.00;;;15.90;99.90;;;;;;5076859;28;20089;-88
2021/08/21 02:03:54;;;;;;;0.00;0.00;;;;;;;;;;5077147;28;20054;-88
2021/08/21 02:06:42;;;;;;;0.00;0.00;;;15.90;99.90;;;;;;5087435;28;20050;-88
2021/08/21 02:09:29;;;;;;;0.00;0.00;;;;;;;;;;5072615;28;20440;-87
2021/08/21 02:12:17;;;;;;;0.00;0.00;;;16.00;99.90;;;;;;5076747;28;20123;-87
2021/08/21 02:15:06;;;;;;;0.00;0.00;;;16.00;99.90;;;;;;5092716;28;20131;-88
2021/08/21 02:17:54;;;;;;;0.00;0.00;;;16.00;99.90;;;;;;5072256;28;20044;-88
2021/08/21 02:20:43;;;;;;;0.00;0.00;;;16.00;99.90;;;;;;5082805;28;20400;-88
2021/08/21 02:23:30;;;;;;;0.10;0.10;;;15.90;99.90;;;;;;5076178;28;20048;-88
2021/08/21 02:26:17;;;;;;;0.00;0.00;;;15.90;99.90;;;;;;5095391;28;20127;-88
2021/08/21 02:29:04;;;;;;;0.00;0.00;;;15.90;99.90;;;;;;5074795;28;20046;-89
2021/08/21 02:31:55;;;;;;;0.00;0.00;;;15.90;99.90;;;;;;5080217;28;20560;-87
2021/08/21 02:34:43;;;;;;;0.00;0.00;;;15.90;99.90;;;;;;5076385;28;20508;-88
2021/08/21 02:37:31;;;;;;;0.00;0.00;;;15.80;99.90;;;;;;5082640;28;20048;-87
2021/08/21 02:40:18;;;;;;;0.00;0.00;;;15.80;99.90;;;;;;5080771;28;20044;-88
2021/08/21 02:43:05;;;;;;;0.00;0.00;;;15.70;99.90;;;;;;5076681;28;20044;-90
2021/08/21 02:45:52;;;;;;;0.00;0.00;;;15.60;99.90;;;;;;5090174;28;20136;-88
2021/08/21 02:48:40;;;;;;;0.00;0.00;;;15.50;99.90;;;;;;5078502;28;20079;-89
2021/08/21 02:51:28;;;;;;;0.00;0.00;;;15.50;99.90;;;;;;5074300;28;20053;-88
2021/08/21 02:54:15;;;;;;;0.00;0.00;;;15.50;99.90;;;;;;5090782;28;20047;-88
2021/08/21 02:57:03;;;;;;;0.00;0.00;;;15.60;99.90;;;;;;5076571;28;20178;-88
2021/08/21 02:59:50;;;;;;;0.00;0.00;;;15.60;99.90;;;;;;5073975;28;20047;-88
2021/08/21 03:02:37;;;;;;;0.00;0.00;;;16.00;99.90;;;;;;5085919;28;20044;-88
2021/08/21 03:05:24;;;;;;;0.00;0.00;;;15.60;99.90;;;;;;5084892;28;20043;-87
2021/08/21 03:08:12;;;;;;;0.00;0.00;;;15.50;99.90;;;;;;5079675;28;20119;-88
2021/08/21 03:11:00;;;;;;;0.00;0.00;;;15.50;99.90;;;;;;5092023;28;20096;-89
2021/08/21 03:13:47;;;;;;;0.00;0.00;;;15.60;99.90;;;;;;5086404;28;20047;-87
2021/08/21 03:16:34;;;;;;;0.00;0.00;;;15.60;99.90;;;;;;5069805;28;20521;-88
2021/08/21 03:19:21;;;;;;;0.00;0.00;;;15.60;99.90;;;;;;5086342;28;20082;-89
2021/08/21 03:22:08;;;;;;;0.00;0.00;;;15.70;99.90;;;;;;5073114;28;20168;-88
2021/08/21 03:24:57;;;;;;;0.00;0.00;;;15.60;99.90;;;;;;5097710;28;20048;-88
2021/08/21 03:27:44;;;;;;;0.00;0.00;;;15.60;99.90;;;;;;5079275;28;20075;-89
2021/08/21 03:30:31;;;;;;;0.00;0.00;;;15.60;99.90;;;;;;5073562;28;20045;-88
2021/08/21 03:33:18;;;;;;;0.00;0.00;;;15.70;99.90;;;;;;5083963;22;20126;-87
2021/08/21 03:36:05;;;;;;;0.00;0.00;;;15.70;99.90;;;;;;5084819;28;20584;-88
2021/08/21 03:38:52;;;;;;;0.00;0.00;;;15.70;99.90;;;;;;5076595;28;20101;-87
2021/08/21 03:41:40;;;;;;;0.00;0.00;;;15.80;99.90;;;;;;5089178;28;20121;-87
2021/08/21 03:44:28;;;;;;;0.00;0.00;;;15.80;99.90;;;;;;5074517;28;20523;-88
2021/08/21 03:47:15;;;;;;;0.00;0.00;;;15.80;99.90;;;;;;5087113;28;20044;-88
2021/08/21 03:50:02;;;;;;;0.00;0.00;;;15.90;99.90;;;;;;5084152;28;20051;-87
2021/08/21 03:52:49;;;;;;;0.00;0.00;;;15.90;99.90;;;;;;5069834;28;20492;-89
2021/08/21 03:55:37;;;;;;;0.00;0.00;;;15.80;99.90;;;;;;5073069;28;20059;-89
2021/08/21 03:58:26;;;;;;;0.00;0.00;;;15.80;99.90;;;;;;5087610;28;20051;-88
2021/08/21 04:01:13;;;;;;;0.00;0.00;;;15.90;99.90;;;;;;5078613;28;20044;-87
2021/08/21 04:04:00;;;;;;;0.00;0.00;;;16.00;99.90;;;;;;5075500;28;20055;-88
2021/08/21 04:06:47;;;;;;;0.00;0.00;;;16.00;99.90;;;;;;5069678;28;20502;-89
2021/08/21 04:09:34;;;;;;;0.00;0.00;;;16.00;99.90;;;;;;5083705;28;20122;-89
2021/08/21 04:12:21;;;;;;;0.00;0.00;;;16.00;99.90;;;;;;5102075;28;20044;-88
2021/08/21 04:15:10;;;;;;;0.00;0.00;;;15.90;99.90;;;;;;5105763;28;20147;-88
2021/08/21 04:17:57;;;;;;;0.00;0.00;;;15.70;99.90;;;;;;5076340;28;20063;-87
2021/08/21 04:20:45;;;;;;;0.00;0.00;;;15.60;99.90;;;;;;5069244;28;20115;-87
2021/08/21 04:23:32;;;;;;;0.00;0.00;;;15.60;99.90;;;;;;5078657;28;20186;-88
2021/08/21 04:26:19;;;;;;;0.00;0.00;;;15.80;99.90;;;;;;5086945;28;20052;-87
2021/08/21 04:29:07;;;;;;;0.00;0.00;;;15.90;99.90;;;;;;5082567;28;20585;-88
2021/08/21 04:31:55;;;;;;;0.00;0.00;;;15.90;99.90;;;;;;5087100;28;20084;-87
2021/08/21 04:34:43;;;;;;;0.00;0.00;;;;;;;;;;5087821;28;20048;-87
2021/08/21 04:37:30;;;;;;;0.00;0.00;;;16.00;99.90;;;;;;5086224;28;20127;-88
2021/08/21 04:40:20;;;;;;;0.00;0.00;;;16.10;99.90;;;;;;5085346;28;20055;-86
2021/08/21 04:43:07;;;;;;;0.00;0.00;;;16.10;99.90;;;;;;5088971;28;20040;-87
2021/08/21 04:45:55;;;;;;;0.00;0.00;;;16.20;99.90;;;;;;5086200;28;20118;-87
2021/08/21 04:48:43;;;;;;;0.00;0.00;;;16.20;99.90;;;;;;5072656;28;20481;-88
2021/08/21 04:51:30;;;;;;;0.00;0.00;;;16.20;99.90;;;;;;5086483;28;20168;-88
2021/08/21 04:54:18;;;;;;;0.00;0.00;;;16.20;99.90;;;;;;5084338;28;20040;-88
2021/08/21 04:57:05;;;;;;;0.00;0.00;;;16.20;99.90;;;;;;5074540;28;20132;-89
2021/08/21 04:59:52;;;;;;;0.00;0.00;;;16.20;99.90;;;;;;5076867;28;20044;-88
2021/08/21 05:02:40;;;;;;;0.00;0.00;;;16.10;99.90;;;;;;5077657;28;20040;-87
2021/08/21 05:05:31;;;;;;;0.00;0.00;;;16.10;99.90;;;;;;5088268;28;20048;-88
2021/08/21 05:08:19;;;;;;;0.00;0.00;;;16.00;99.90;;;;;;5090544;28;20125;-88
2021/08/21 05:11:06;;;;;;;0.00;0.00;;;16.00;99.90;;;;;;5076479;28;20044;-88
2021/08/21 05:13:53;;;;;;;0.00;0.00;;;16.10;99.90;;;;;;5088015;28;20087;-88
2021/08/21 05:16:45;;;;;;;0.00;0.00;;;16.10;99.90;;;;;;5084349;28;20423;-87
2021/08/21 05:22:38;;;;;;;0.00;0.00;;;16.10;99.90;;;;;;5094290;28;20554;-88
2021/08/21 05:25:26;;;;;;;0.00;0.00;;;;;;;;;;5068391;28;20130;-87
2021/08/21 05:28:15;;;;;;;0.00;0.00;;;16.10;99.90;;;;;;5075951;28;20411;-88
2021/08/21 05:31:02;;;;;;;0.00;0.00;;;;;;;;;;5075464;28;20059;-87
2021/08/21 05:33:50;;;;;;;0.00;0.00;;;;;;;;;;5070927;28;20397;-88
2021/08/21 05:36:38;;;;;;;0.00;0.00;;;;;;;;;;5076716;28;20125;-88
2021/08/21 05:39:27;;;;;;;0.10;0.10;;;16.40;99.90;;;;;;5077212;28;20032;-87
2021/08/21 05:42:14;;;;;;;0.00;0.00;;;;;;;;;;5071551;28;20583;-88
2021/08/21 05:45:02;;;;;;;0.00;0.00;;;;;;;;;;5071202;28;20129;-89
2021/08/21 05:47:51;;;;;;;0.00;0.00;;;;;;;;;;5089982;28;20109;-88
2021/08/21 05:50:39;;;;;;;0.00;0.00;;;;;;;;;;5070434;28;20056;-88
2021/08/21 05:53:26;;;;;;;0.00;0.00;;;;;;;;;;5091298;28;20136;-87
2021/08/21 05:56:15;;;;;;;0.00;0.00;;;16.50;99.90;;;;;;5090135;28;20131;-87
2021/08/21 05:59:03;;;;;;;0.00;0.00;;;;;;;;;;5068070;28;20045;-86
2021/08/21 06:01:50;;;;;;;0.00;0.00;;;;;;;;;;5069609;28;20107;-87
2021/08/21 06:04:38;;;;;;;0.00;0.00;;;;;;;;;;5073964;28;20119;-88
2021/08/21 06:07:25;;;;;;;0.00;0.00;;;16.70;99.90;;;;;;5073401;28;20125;-87
2021/08/21 06:10:12;;;;;;;0.00;0.00;;;16.70;99.90;;;;;;5075358;28;20398;-88
2021/08/21 06:13:00;;;;;;;0.00;0.00;;;16.80;99.90;;;;;;5072855;28;20510;-87
2021/08/21 06:15:48;;;;;;;0.00;0.00;;;17.10;99.90;;;;;;5074671;28;20525;-88
2021/08/21 06:18:35;;;;;;;0.00;0.00;;;17.90;99.90;;;;;;5076274;28;20337;-87
2021/08/21 06:21:22;;;;;;;0.00;0.00;;;16.90;99.90;;;;;;5075334;28;20040;-88
2021/08/21 06:24:10;;;;;;;0.00;0.00;;;17.00;99.90;;;;;;5081236;28;20083;-88
2021/08/21 06:26:57;;;;;;;0.00;0.00;;;16.90;99.90;;;;;;5079851;28;20139;-87
2021/08/21 06:29:46;;;;;;;0.00;0.00;;;16.90;99.90;;;;;;5065242;28;20630;-88
2021/08/21 06:32:34;;;;;;;0.00;0.00;;;17.00;99.90;;;;;;5085381;28;20043;-87
2021/08/21 06:35:21;;;;;;;0.00;0.00;;;17.10;99.90;;;;;;5089219;28;20136;-86
2021/08/21 06:38:08;;;;;;;0.00;0.00;;;17.10;99.90;;;;;;5077109;28;20063;-88
2021/08/21 06:40:56;;;;;;;0.00;0.00;;;17.20;99.90;;;;;;5073409;28;20082;-87
2021/08/21 06:43:43;;;;;;;0.00;0.00;;;17.20;99.90;;;;;;5080963;28;20048;-88
2021/08/21 06:46:31;;;;;;;0.00;0.00;;;17.10;99.90;;;;;;5074771;28;20043;-88
2021/08/21 06:49:18;;;;;;;0.00;0.00;;;17.10;99.90;;;;;;5070592;28;20036;-88
2021/08/21 06:52:06;;;;;;;0.00;0.00;;;17.10;99.90;;;;;;5074964;28;20515;-89
2021/08/21 06:54:53;;;;;;;0.00;0.00;;;17.20;99.90;;;;;;5071097;28;20504;-88
2021/08/21 06:57:41;;;;;;;0.00;0.00;;;17.30;99.90;;;;;;5077688;28;20127;-89
2021/08/21 07:00:28;;;;;;;0.00;0.00;;;17.40;99.90;;;;;;5078213;28;20048;-88
2021/08/21 07:03:17;;;;;;;0.00;0.00;;;17.40;99.90;;;;;;5082902;28;20417;-88
2021/08/21 07:06:05;;;;;;;0.00;0.00;;;;;;;;;;5076301;28;20079;-87
2021/08/21 07:08:53;;;;;;;0.00;0.00;;;;;;;;;;5071578;28;20044;-88
2021/08/21 07:11:41;;;;;;;0.00;0.00;;;;;;;;;;5091456;28;20040;-87
2021/08/21 07:14:29;;;;;;;0.00;0.00;;;;;;;;;;5075692;28;20053;-88
2021/08/21 07:17:18;;;;;;;0.00;0.00;;;;;;;;;;5071221;28;20036;-88
2021/08/21 07:20:08;;;;;;;0.00;0.00;;;17.90;99.90;;;;;;5083734;28;20040;-89
2021/08/21 07:22:55;;;;;;;0.00;0.00;;;;;;;;;;5073590;28;20381;-90
2021/08/21 07:25:44;;;;;;;0.00;0.00;;;;;;;;;;5078808;28;20170;-88
2021/08/21 07:28:32;;;;;;;0.00;0.00;;;;;;;;;;5086251;28;20078;-90
2021/08/21 07:31:19;;;;;;;0.00;0.00;;;;;;;;;;5096489;28;20047;-87
2021/08/21 07:34:07;;;;;;;0.00;0.00;;;;;;;;;;5093122;28;20044;-88
2021/08/21 07:36:56;;;;;;;0.00;0.00;;;18.20;99.90;;;;;;5079357;28;20047;-89
2021/08/21 07:39:43;;;;;;;0.00;0.00;;;;;;;;;;5089417;28;20055;-89
2021/08/21 07:42:31;;;;;;;0.00;0.00;;;;;;;;;;5089179;28;20780;-88
2021/08/21 07:45:18;;;;;;;0.00;0.00;;;18.70;99.90;;;;;;5103435;28;20459;-90
2021/08/21 07:48:06;;;;;;;0.00;0.00;;;;;;;;;;5082222;28;20593;-88
2021/08/21 07:50:54;;;;;;;0.00;0.00;;;;;;;;;;5086497;28;20039;-88
2021/08/21 07:53:42;;;;;;;0.00;0.00;;;20.50;99.90;;;;;;5064707;28;20549;-88
2021/08/21 07:56:30;;;;;;;0.00;0.00;;;;;;;;;;5073287;28;20056;-90
2021/08/21 07:59:18;;;;;;;0.00;0.00;;;;;;;;;;5083063;28;20055;-88
2021/08/21 08:02:06;;;;;;;0.00;0.00;;;;;;;;;;5070774;28;20187;-88
2021/08/21 08:04:54;;;;;;;0.00;0.00;;;;;;;;;;5074571;28;20037;-89
2021/08/21 08:07:41;;;;;;;0.00;0.00;;;;;;;;;;5084308;28;20074;-89
2021/08/21 08:10:30;;;;;;;0.00;0.00;;;19.50;99.90;;;;;;5079300;28;20077;-89
2021/08/21 08:13:18;;;;;;;0.00;0.00;;;;;;;;;;5072244;28;20052;-87
2021/08/21 08:16:05;;;;;;;0.00;0.00;;;;;;;;;;5084716;28;20052;-89
2021/08/21 08:18:53;;;;;;;0.00;0.00;;;;;;;;;;5087482;28;20090;-88
2021/08/21 08:21:41;;;;;;;0.00;0.00;;;;;;;;;;5093505;28;20051;-89
2021/08/21 08:24:28;;;;;;;0.00;0.00;;;;;;;;;;5074767;28;20048;-90
2021/08/21 08:27:18;;;;;;;0.00;0.00;;;20.50;99.90;;;;;;5084303;28;20086;-86
2021/08/21 08:30:06;;;;;;;0.00;0.00;;;20.60;99.90;;;;;;5073033;28;20491;-87
2021/08/21 08:32:54;;;;;;;0.00;0.00;;;;;;;;;;5068969;28;20036;-88
2021/08/21 08:35:42;;;;;;;0.00;0.00;;;;;;;;;;5086086;28;20419;-88
2021/08/21 08:38:29;;;;;;;0.00;0.00;;;;;;;;;;5087360;28;20052;-89
2021/08/21 08:41:21;;;;;;;0.00;0.00;;;21.00;99.90;;;;;;5087425;28;20040;-88
2021/08/21 08:44:11;;;;;;;0.00;0.00;;;21.10;99.90;;;;;;5086771;28;20098;-87
2021/08/21 08:46:59;;;;;;;0.00;0.00;;;20.70;99.90;;;;;;5090036;28;20079;-88
2021/08/21 08:49:48;;;;;;;0.00;0.00;;;21.30;99.90;;;;;;5084037;28;20052;-87
2021/08/21 08:52:35;;;;;;;0.00;0.00;;;22.60;99.90;;;;;;5085772;28;20799;-88
2021/08/21 08:55:23;;;;;;;0.00;0.00;;;21.30;99.90;;;;;;5088545;28;20419;-88
2021/08/21 08:58:10;;;;;;;0.00;0.00;;;21.50;99.90;;;;;;5085646;28;20054;-88
2021/08/21 09:00:59;;;;;;;0.00;0.00;;;21.50;99.90;;;;;;5082603;28;20040;-87
2021/08/21 09:03:47;;;;;;;0.00;0.00;;;;;;;;;;5064289;28;20056;-89
2021/08/21 09:06:35;;;;;;;0.00;0.00;;;21.80;99.90;;;;;;5074385;28;20797;-88
2021/08/21 09:09:24;;;;;;;0.00;0.00;;;23.90;99.90;;;;;;5073711;28;20891;-86
2021/08/21 09:12:23;;;;;;;0.00;0.00;;;22.00;99.90;;;;;;5071318;28;20134;-88
2021/08/21 09:15:22;;;;;;;0.00;0.00;;;22.20;99.90;;;;;;5069287;28;20079;-88
2021/08/21 09:18:13;;;;;;;0.00;0.00;;;22.50;99.90;;;;;;5070558;28;20538;-87
2021/08/21 09:21:02;;;;;;;0.00;0.00;;;22.70;99.90;;;;;;5074529;28;20115;-88
2021/08/21 09:23:53;;;;;;;0.00;0.00;;;23.00;99.90;;;;;;5085929;28;20083;-88
2021/08/21 09:26:40;;;;;;;0.00;0.00;;;23.30;99.90;;;;;;5069723;28;20044;-89
2021/08/21 09:29:27;;;;;;;0.00;0.00;;;23.60;99.90;;;;;;5068195;28;20087;-87
2021/08/21 09:32:14;;;;;;;0.00;0.00;;;23.70;99.90;;;;;;5081750;28;20066;-89
2021/08/21 09:37:48;;;;;;;0.00;0.00;;;23.80;99.90;;;;;;5081915;28;20036;-88
2021/08/21 09:40:38;;;;;;;0.00;0.00;;;23.90;99.90;;;;;;5082300;28;20036;-86
2021/08/21 09:43:31;;;;;;;0.00;0.00;;;24.20;99.90;;;;;;5069010;28;20040;-87
2021/08/21 09:46:19;;;;;;;0.00;0.00;;;24.30;99.90;;;;;;5048432;28;20052;-87
2021/08/21 09:49:08;;;;;;;0.00;0.00;;;24.50;99.90;;;;;;5061781;28;20246;-87
2021/08/21 09:51:55;;;;;;;0.00;0.00;;;24.50;99.90;;;;;;5044017;28;20041;-86
2021/08/21 09:54:45;;;;;;;0.00;0.00;;;24.60;99.90;;;;;;5051632;28;20066;-86
2021/08/21 09:57:32;;;;;;;0.00;0.00;;;24.70;99.90;;;;;;5051544;28;20049;-87
2021/08/21 10:00:19;;;;;;;0.00;0.00;;;24.60;99.90;;;;;;5049280;28;20118;-88
2021/08/21 10:03:07;;;;;;;0.00;0.00;;;24.80;99.90;;;;;;5057782;28;20036;-87
2021/08/21 10:05:54;;;;;;;0.00;0.00;;;24.70;99.90;;;;;;5040829;28;20076;-85
2021/08/21 10:08:42;;;;;;;0.00;0.00;;;24.80;99.90;;;;;;5043200;28;20048;-86
2021/08/21 10:11:31;;;;;;;0.00;0.00;;;24.80;99.90;;;;;;5051276;28;20048;-86
2021/08/21 10:14:19;;;;;;;0.00;0.00;;;25.80;99.90;;;;;;5051760;28;20090;-87
2021/08/21 10:17:08;;;;;;;0.00;0.00;;;24.80;99.90;;;;;;5052052;28;20445;-87
2021/08/21 10:19:56;;;;;;;0.00;0.00;;;25.00;99.90;;;;;;5053370;28;20509;-85
2021/08/21 10:22:44;;;;;;;0.00;0.00;;;24.80;99.90;;;;;;5051086;28;20044;-86
2021/08/21 10:25:32;;;;;;;0.00;0.00;;;25.30;99.90;;;;;;5049492;28;20131;-84
2021/08/21 10:28:21;;;;;;;0.00;0.00;;;26.40;99.90;;;;;;5052353;28;20318;-82
2021/08/21 10:31:29;;;;;;;0.00;0.00;;;24.70;99.90;;;;;;5049687;28;20048;-86
2021/08/21 10:34:17;;;;;;;0.00;0.00;;;24.90;99.90;;;;;;5052296;28;20426;-87
2021/08/21 10:37:05;;;;;;;0.00;0.00;;;25.50;99.90;;;;;;5043602;28;20522;-86
2021/08/21 10:39:52;;;;;;;0.00;0.00;;;25.50;99.30;;;;;;5051855;28;20415;-82
2021/08/21 10:42:52;;;;;;;0.00;0.00;;;25.70;99.10;;;;;;5065898;28;20492;-87
2021/08/21 10:45:47;;;;;;;0.00;0.00;;;25.30;97.20;;;;;;5065543;28;20626;-87
2021/08/21 10:48:53;;;;;;;0.00;0.00;;;25.20;97.60;;;;;;5049714;28;20049;-86
2021/08/21 10:51:43;;;;;;;0.00;0.00;;;25.30;98.90;;;;;;5055090;28;20185;-84
2021/08/21 10:54:45;;;;;;;0.00;0.00;;;25.40;98.90;;;;;;5064219;28;20518;-86
2021/08/21 10:57:33;;;;;;;0.00;0.00;;;25.40;98.40;;;;;;5050001;28;20591;-84
2021/08/21 11:01:02;;;;;;;0.00;0.00;;;25.40;98.30;;;;;;5055593;28;20040;-86
2021/08/21 11:03:51;;;;;;;0.00;0.00;;;25.40;98.70;;;;;;5051486;28;20057;-85
2021/08/21 11:06:41;;;;;;;0.00;0.00;;;25.40;98.30;;;;;;5054781;28;20047;-87
2021/08/21 11:09:29;;;;;;;0.00;0.00;;;25.20;98.70;;;;;;5047715;28;20122;-86
2021/08/21 11:12:35;;;;;;;0.00;0.00;;;24.60;99.40;;;;;;5044903;28;20542;-84
2021/08/21 11:15:24;;;;;;;0.00;0.00;;;24.00;99.80;;;;;;5060859;28;21377;-85
2021/08/21 11:18:20;;;;;;;0.00;0.00;;;23.90;99.90;;;;;;5050543;28;20087;-84
2021/08/21 11:21:30;;;;;;;0.00;0.00;;;24.00;99.90;;;;;;5056226;28;20060;-82
2021/08/21 11:24:25;;;;;;;0.00;0.00;;;24.50;99.90;;;;;;5048887;28;20455;-87
2021/08/21 11:27:38;;;;;;;0.00;0.00;;;24.80;99.40;;;;;;5048554;28;20060;-87
2021/08/21 11:30:26;;;;;;;0.00;0.00;;;25.10;99.60;;;;;;5061502;28;20555;-87
2021/08/21 11:33:14;;;;;;;0.00;0.00;;;25.00;99.50;;;;;;5049065;28;20120;-85
2021/08/21 11:36:01;;;;;;;0.00;0.00;;;25.00;99.70;;;;;;5057495;28;20198;-86
2021/08/21 11:38:49;;;;;;;0.00;0.00;;;26.30;99.90;;;;;;5056704;28;20529;-87
2021/08/21 11:41:36;;;;;;;0.00;0.00;;;25.00;99.30;;;;;;5037310;28;20444;-84
2021/08/21 11:44:29;;;;;;;0.00;0.00;;;25.00;99.80;;;;;;5033243;28;20547;-87
2021/08/21 11:47:16;;;;;;;0.00;0.00;;;25.00;99.30;;;;;;5037290;28;20049;-87
2021/08/21 11:50:18;;;;;;;0.00;0.00;;;25.00;98.70;;;;;;5030769;28;20094;-87
2021/08/21 11:53:07;;;;;;;0.00;0.00;;;25.00;98.90;;;;;;5036087;28;20089;-88
2021/08/21 11:55:55;;;;;;;;;;;24.70;98.90;;;;;;5037436;28;20048;-87
2021/08/21 11:58:48;;;;;;;0.00;0.00;;;25.00;98.90;;;;;;5032052;28;20120;-80
2021/08/21 12:01:50;;;;;;;0.00;0.00;;;25.20;98.70;;;;;;5042652;28;20048;-82
2021/08/21 12:04:52;;;;;;;0.00;0.00;;;25.50;99.00;;;;;;5038927;28;20131;-80
2021/08/21 12:07:39;;;;;;;0.00;0.00;;;25.50;99.50;;;;;;5048647;28;20051;-86
2021/08/21 12:10:30;;;;;;;0.00;0.00;;;25.70;99.10;;;;;;5052394;28;20581;-87
2021/08/21 12:13:23;;;;;;;0.00;0.00;;;25.60;98.00;;;;;;5038957;28;20479;-86
2021/08/21 12:16:11;;;;;;;0.00;0.00;;;25.40;97.90;;;;;;5065786;28;20083;-86
2021/08/21 12:19:00;;;;;;;0.00;0.00;;;25.30;97.80;;;;;;5049562;28;20051;-87
2021/08/21 12:21:48;;;;;;;0.00;0.00;;;25.50;98.80;;;;;;5041230;28;20047;-84
2021/08/21 12:24:36;;;;;;;0.00;0.00;;;25.50;98.30;;;;;;5054987;28;20087;-87
2021/08/21 12:27:23;;;;;;;0.00;0.00;;;25.60;97.60;;;;;;5053637;28;20044;-83
2021/08/21 12:30:12;;;;;;;0.00;0.00;;;25.70;98.00;;;;;;5046399;28;20471;-85
2021/08/21 12:33:09;;;;;;;0.00;0.00;;;25.70;98.30;;;;;;5040654;28;20109;-87
2021/08/21 12:36:09;;;;;;;0.00;0.00;;;25.70;97.70;;;;;;5048927;28;20526;-86
2021/08/21 12:39:01;;;;;;;0.00;0.00;;;25.60;97.70;;;;;;5061875;28;20048;-85
2021/08/21 12:41:50;;;;;;;0.00;0.00;;;25.70;98.40;;;;;;5067043;28;20230;-87
2021/08/21 12:44:38;;;;;;;0.00;0.00;;;25.70;98.60;;;;;;5051877;28;20040;-84
2021/08/21 12:47:35;;;;;;;0.00;0.00;;;25.90;98.60;;;;;;5054470;28;20186;-84
2021/08/21 12:50:22;;;;;;;0.00;0.00;;;25.90;98.30;;;;;;5055323;28;20515;-86
2021/08/21 12:53:17;;;;;;;0.00;0.00;;;26.10;98.20;;;;;;5041080;28;20174;-84
2021/08/21 12:56:09;;;;;;;0.00;0.00;;;26.30;97.60;;;;;;5051309;28;20044;-86
2021/08/21 12:59:11;;;;;;;0.00;0.00;;;26.40;97.40;;;;;;5049797;28;20101;-86
2021/08/21 13:02:02;;;;;;;0.00;0.00;;;26.30;96.50;;;;;;5053664;28;20045;-83
2021/08/21 13:04:57;;;;;;;0.00;0.00;;;26.20;97.30;;;;;;5054318;28;20123;-87
2021/08/21 13:07:46;;;;;;;0.00;0.00;;;26.20;96.40;;;;;;5044443;28;20124;-85
2021/08/21 13:10:37;;;;;;;0.00;0.00;;;26.30;96.50;;;;;;5061449;28;20048;-87
2021/08/21 13:13:24;;;;;;;0.00;0.00;;;26.40;96.80;;;;;;5050881;28;20055;-87
2021/08/21 13:16:11;;;;;;;0.00;0.00;;;26.30;95.70;;;;;;5048443;28;20534;-86
2021/08/21 13:18:58;;;;;;;0.00;0.00;;;26.30;95.40;;;;;;5047023;28;20052;-86
2021/08/21 13:21:45;;;;;;;0.00;0.00;;;26.30;95.70;;;;;;5053466;28;20381;-87
2021/08/21 13:24:33;;;;;;;0.00;0.00;;;26.30;96.30;;;;;;5070420;28;20048;-87
2021/08/21 13:27:22;;;;;;;0.00;0.00;;;26.20;95.20;;;;;;5049686;28;20044;-87
2021/08/21 13:30:10;;;;;;;0.00;0.00;;;26.10;96.70;;;;;;5050200;28;20067;-87
2021/08/21 13:32:58;;;;;;;0.00;0.00;;;26.00;97.50;;;;;;5041389;28;20041;-86
2021/08/21 13:35:45;;;;;;;0.00;0.00;;;26.10;95.90;;;;;;5052031;28;20053;-87
2021/08/21 13:38:32;;;;;;;0.00;0.00;;;26.20;95.50;;;;;;5044086;28;20179;-86
2021/08/21 13:41:20;;;;;;;0.00;0.00;;;26.20;94.90;;;;;;5045118;28;20645;-83
2021/08/21 13:44:08;;;;;;;0.00;0.00;;;26.10;95.40;;;;;;5054152;28;20055;-86
2021/08/21 13:46:55;;;;;;;0.00;0.00;;;26.20;95.90;;;;;;5046440;28;20128;-86
2021/08/21 13:49:42;;;;;;;0.00;0.00;;;26.40;95.30;;;;;;5047067;28;20045;-83
2021/08/21 13:52:29;;;;;;;0.00;0.00;;;26.40;94.70;;;;;;5046721;28;20045;-84
2021/08/21 13:55:17;;;;;;;0.00;0.00;;;26.20;93.90;;;;;;5049448;28;20053;-85
2021/08/21 13:58:04;;;;;;;0.00;0.00;;;26.50;94.90;;;;;;5048892;28;20047;-86
2021/08/21 14:00:52;;;;;;;0.00;0.00;;;26.50;94.40;;;;;;5055277;28;20044;-84
2021/08/21 14:03:40;;;;;;;0.00;0.00;;;;;;;;;;5046022;28;20045;-81
2021/08/21 14:06:27;;;;;;;0.00;0.00;;;25.90;94.40;;;;;;5047204;28;20052;-86
2021/08/21 14:09:14;;;;;;;0.00;0.00;;;25.60;95.20;;;;;;5053459;28;20119;-88
2021/08/21 14:12:02;;;;;;;0.00;0.00;;;25.40;95.60;;;;;;5047212;28;20120;-86
2021/08/21 14:14:50;;;;;;;0.00;0.00;;;25.70;95.10;;;;;;5051142;28;20563;-86
2021/08/21 14:17:39;;;;;;;0.00;0.00;;;26.20;93.80;;;;;;5047349;28;20131;-87
2021/08/21 14:20:26;;;;;;;0.00;0.00;;;26.20;94.00;;;;;;5044871;28;20123;-83
2021/08/21 14:23:13;;;;;;;0.00;0.00;;;26.40;93.60;;;;;;5049212;28;20303;-88
2021/08/21 14:26:00;;;;;;;0.00;0.00;;;26.70;93.90;;;;;;5039404;28;20049;-85
2021/08/21 14:28:47;;;;;;;0.00;0.00;;;27.00;94.10;;;;;;5043828;28;20101;-87
2021/08/21 14:31:35;;;;;;;0.00;0.00;;;27.30;93.40;;;;;;5050295;28;20151;-83
2021/08/21 14:34:27;;;;;;;0.00;0.00;;;27.30;92.00;;;;;;5049787;28;20045;-87
2021/08/21 14:37:15;;;;;;;0.00;0.00;;;27.40;91.60;;;;;;5054808;28;20423;-86
2021/08/21 14:40:02;;;;;;;0.00;0.00;;;27.50;91.90;;;;;;5056186;28;20044;-86
2021/08/21 14:42:49;;;;;;;0.00;0.00;;;27.50;90.90;;;;;;5056070;28;20102;-85
2021/08/21 14:45:36;;;;;;;0.00;0.00;;;27.60;91.50;;;;;;5043930;28;20049;-85
2021/08/21 14:48:25;;;;;;;0.00;0.00;;;27.50;92.50;;;;;;5048774;28;20129;-83
2021/08/21 14:51:13;;;;;;;0.00;0.00;;;27.50;91.60;;;;;;5043247;28;20044;-83
2021/08/21 14:54:03;;;;;;;0.00;0.00;;;27.40;91.70;;;;;;5051631;28;20126;-87
2021/08/21 14:56:50;;;;;;;0.00;0.00;;;27.60;92.50;;;;;;5048365;28;20053;-85
2021/08/21 14:59:37;;;;;;;0.00;0.00;;;27.50;90.40;;;;;;5048767;28;20052;-85